createdAt,value
2019-02-07T00:00:13.595Z,-0.30
2019-02-07T00:02:41.261Z,-0.40
2019-02-07T00:05:08.636Z,-0.70
2019-02-07T00:07:35.924Z,-0.80
2019-02-07T00:10:05.138Z,-0.80
2019-02-07T00:12:32.691Z,-0.70
2019-02-07T00:15:00.340Z,-0.70
2019-02-07T00:17:28.009Z,-0.50
2019-02-07T00:19:55.416Z,-0.80
2019-02-07T00:22:22.775Z,-0.60
2019-02-07T00:24:50.807Z,-0.80
2019-02-07T00:27:18.177Z,-0.90
2019-02-07T00:29:45.460Z,-0.70
2019-02-07T00:32:13.019Z,-0.60
2019-02-07T00:34:40.407Z,-0.60
2019-02-07T00:37:08.003Z,-0.70
2019-02-07T00:39:35.207Z,-0.60
2019-02-07T00:42:02.681Z,-0.70
2019-02-07T00:44:30.276Z,-0.90
2019-02-07T00:46:57.830Z,-0.70
2019-02-07T00:49:25.133Z,-0.70
2019-02-07T00:51:52.912Z,-0.70
2019-02-07T00:54:20.191Z,-0.80
2019-02-07T00:56:47.490Z,-1.00
2019-02-07T00:59:14.801Z,-1.20
2019-02-07T01:01:42.070Z,-1.00
2019-02-07T01:04:09.991Z,-1.20
2019-02-07T01:06:37.320Z,-1.30
2019-02-07T01:09:06.696Z,-1.30
2019-02-07T01:11:34.012Z,-1.30
2019-02-07T01:14:01.343Z,-1.30
2019-02-07T01:16:29.196Z,-1.20
2019-02-07T01:18:56.509Z,-1.20
2019-02-07T01:21:24.201Z,-1.30
2019-02-07T01:23:51.578Z,-1.40
2019-02-07T01:26:19.184Z,-1.40
2019-02-07T01:28:46.428Z,-1.10
2019-02-07T01:31:14.047Z,-0.80
2019-02-07T01:33:41.382Z,-0.70
2019-02-07T01:36:08.680Z,-0.60
2019-02-07T01:38:36.012Z,-0.70
2019-02-07T01:41:03.661Z,-0.70
2019-02-07T01:43:31.306Z,-0.70
2019-02-07T01:45:58.510Z,-0.60
2019-02-07T01:48:25.761Z,-0.60
2019-02-07T01:50:53.063Z,-0.70
2019-02-07T01:53:20.381Z,-0.60
2019-02-07T01:55:47.928Z,-0.60
2019-02-07T01:58:15.433Z,-0.70
2019-02-07T02:00:42.764Z,-0.60
2019-02-07T02:03:10.334Z,-0.60
2019-02-07T02:05:37.706Z,-0.50
2019-02-07T02:08:04.960Z,-0.40
2019-02-07T02:10:32.241Z,-0.30
2019-02-07T02:12:59.519Z,-0.20
2019-02-07T02:15:27.646Z,-0.30
2019-02-07T02:17:55.152Z,-0.50
2019-02-07T02:20:23.024Z,-0.60
2019-02-07T02:22:50.798Z,-0.50
2019-02-07T02:25:18.281Z,-0.60
2019-02-07T02:27:45.840Z,-0.50
2019-02-07T02:30:18.494Z,-0.70
2019-02-07T02:32:45.831Z,-0.70
2019-02-07T02:35:13.613Z,-1.00
2019-02-07T02:37:41.287Z,-0.90
2019-02-07T02:40:08.838Z,-0.90
2019-02-07T02:42:36.227Z,-0.90
2019-02-07T02:45:04.646Z,-1.10
2019-02-07T02:47:31.907Z,-1.10
2019-02-07T02:49:59.192Z,-1.10
2019-02-07T02:52:26.716Z,-0.80
2019-02-07T02:54:55.920Z,-0.70
2019-02-07T02:57:23.465Z,-0.60
2019-02-07T02:59:50.743Z,-0.40
2019-02-07T03:02:43.347Z,-0.50
2019-02-07T03:05:21.118Z,-0.40
2019-02-07T03:08:10.701Z,-0.30
2019-02-07T03:16:30.073Z,-0.40
2019-02-07T03:19:17.431Z,-0.50
2019-02-07T03:22:04.326Z,-0.40
2019-02-07T03:24:51.615Z,-0.50
2019-02-07T03:27:53.441Z,-0.80
2019-02-07T03:30:31.448Z,-0.70
2019-02-07T03:33:21.132Z,-0.80
2019-02-07T03:36:07.132Z,-0.70
2019-02-07T03:39:12.334Z,-0.80
2019-02-07T03:41:57.732Z,-0.80
2019-02-07T03:44:43.025Z,-0.40
2019-02-07T03:47:45.274Z,-0.10
2019-02-07T03:50:39.526Z,-0.10
2019-02-07T03:53:24.915Z,-0.30
2019-02-07T03:56:30.264Z,-0.30
2019-02-07T03:59:23.209Z,-0.40
2019-02-07T04:02:08.742Z,-0.50
2019-02-07T04:05:01.503Z,-0.40
2019-02-07T04:07:38.624Z,-0.40
2019-02-07T04:10:31.229Z,-0.40
2019-02-07T04:13:21.220Z,-0.50
2019-02-07T04:16:15.059Z,-0.80
2019-02-07T04:18:55.458Z,-0.90
2019-02-07T04:21:54.827Z,-0.80
2019-02-07T04:24:47.751Z,-0.90
2019-02-07T04:27:43.850Z,-0.70
2019-02-07T04:30:45.730Z,-0.80
2019-02-07T04:33:32.647Z,-1.10
2019-02-07T04:36:20.207Z,-1.10
2019-02-07T04:39:15.771Z,-1.10
2019-02-07T04:42:09.004Z,-1.30
2019-02-07T04:45:10.692Z,-1.40
2019-02-07T04:47:57.610Z,-1.50
2019-02-07T04:50:50.668Z,-1.20
2019-02-07T04:53:36.047Z,-1.20
2019-02-07T04:56:21.157Z,-1.10
2019-02-07T04:58:57.894Z,-0.90
2019-02-07T05:01:47.020Z,-0.70
2019-02-07T05:04:43.105Z,-0.80
2019-02-07T05:07:35.981Z,-0.80
2019-02-07T05:10:23.195Z,-0.90
2019-02-07T05:13:09.227Z,-0.90
2019-02-07T05:16:07.679Z,-1.00
2019-02-07T05:18:57.561Z,-0.80
2019-02-07T05:21:44.778Z,-0.90
2019-02-07T05:24:31.824Z,-1.00
2019-02-07T05:27:21.785Z,-0.90
2019-02-07T05:29:56.341Z,-0.80
2019-02-07T05:32:42.191Z,-1.00
2019-02-07T05:35:47.627Z,-1.00
2019-02-07T05:38:40.833Z,-1.10
2019-02-07T05:41:17.293Z,-1.20
2019-02-07T05:43:57.266Z,-1.20
2019-02-07T05:46:50.728Z,-1.10
2019-02-07T05:49:49.811Z,-0.90
2019-02-07T05:52:40.520Z,-0.90
2019-02-07T05:55:25.414Z,-0.90
2019-02-07T05:58:04.890Z,-1.00
2019-02-07T06:00:45.429Z,-1.30
2019-02-07T06:03:50.568Z,-1.50
2019-02-07T06:06:33.975Z,-1.60
2019-02-07T06:09:17.193Z,-1.60
2019-02-07T06:12:06.951Z,-1.40
2019-02-07T06:14:51.089Z,-1.20
2019-02-07T06:17:44.153Z,-1.20
2019-02-07T06:20:31.475Z,-1.30
2019-02-07T06:23:22.376Z,-1.50
2019-02-07T06:26:15.383Z,-1.40
2019-02-07T06:29:01.183Z,-1.60
2019-02-07T06:31:46.736Z,-1.50
2019-02-07T06:34:29.515Z,-1.60
2019-02-07T06:37:19.742Z,-1.30
2019-02-07T06:40:05.120Z,-1.20
2019-02-07T06:42:52.784Z,-1.20
2019-02-07T06:45:41.493Z,-1.20
2019-02-07T06:48:23.921Z,-1.20
2019-02-07T06:51:29.668Z,-1.10
2019-02-07T06:54:15.473Z,-0.90
2019-02-07T06:57:06.490Z,-1.00
2019-02-07T06:59:52.875Z,-0.90
2019-02-07T07:02:37.739Z,-1.00
2019-02-07T07:05:37.837Z,-1.00
2019-02-07T07:08:33.940Z,-0.90
2019-02-07T07:11:19.340Z,-0.70
2019-02-07T07:14:03.234Z,-0.60
2019-02-07T07:16:56.016Z,-0.50
2019-02-07T07:20:00.828Z,-0.60
2019-02-07T07:23:06.160Z,-0.70
2019-02-07T07:26:05.466Z,-0.90
2019-02-07T07:28:58.395Z,-0.80
2019-02-07T07:31:50.377Z,-0.70
2019-02-07T07:34:43.202Z,-0.70
2019-02-07T07:37:38.981Z,-0.80
2019-02-07T07:40:26.185Z,-0.70
2019-02-07T07:43:13.501Z,-0.60
2019-02-07T07:46:09.406Z,-0.60
2019-02-07T07:48:55.031Z,-0.70
2019-02-07T07:51:40.734Z,-0.90
2019-02-07T07:54:33.815Z,-0.70
2019-02-07T07:57:19.783Z,-0.70
2019-02-07T08:00:24.929Z,-0.70
2019-02-07T08:03:12.196Z,-0.50
2019-02-07T08:05:59.249Z,-0.40
2019-02-07T08:08:37.173Z,-0.50
2019-02-07T08:11:19.803Z,-0.40
2019-02-07T08:14:17.585Z,-0.40
2019-02-07T08:16:59.245Z,-0.30
2019-02-07T08:19:55.226Z,-0.40
2019-02-07T08:22:54.052Z,-0.20
2019-02-07T08:25:36.543Z,-0.10
2019-02-07T08:28:22.157Z,0.10
2019-02-07T08:31:04.888Z,0.00
2019-02-07T08:33:51.923Z,0.10
2019-02-07T08:36:37.653Z,0.10
2019-02-07T08:39:29.349Z,0.20
2019-02-07T08:42:11.393Z,0.20
2019-02-07T08:44:57.081Z,0.20
2019-02-07T08:47:42.794Z,0.60
2019-02-07T08:50:29.518Z,0.80
2019-02-07T08:53:25.824Z,0.60
2019-02-07T08:56:12.969Z,0.30
2019-02-07T08:58:58.859Z,0.20
2019-02-07T09:02:03.944Z,0.60
2019-02-07T09:05:00.278Z,0.60
2019-02-07T09:07:56.120Z,0.70
2019-02-07T09:10:49.490Z,0.60
2019-02-07T09:13:48.356Z,0.70
2019-02-07T09:16:47.575Z,0.60
2019-02-07T09:19:34.935Z,0.50
2019-02-07T09:22:14.729Z,0.40
2019-02-07T09:28:11.776Z,0.40
2019-02-07T09:31:07.906Z,0.50
2019-02-07T09:33:56.156Z,0.80
2019-02-07T09:36:41.632Z,0.70
2019-02-07T09:39:33.735Z,0.60
2019-02-07T09:42:20.835Z,0.60
2019-02-07T09:45:26.075Z,0.70
2019-02-07T09:48:21.337Z,0.70
2019-02-07T09:50:59.067Z,0.80
2019-02-07T09:53:44.692Z,0.80
2019-02-07T09:56:30.390Z,1.00
2019-02-07T09:59:17.047Z,1.00
2019-02-07T10:02:04.414Z,0.80
2019-02-07T10:04:51.475Z,0.80
2019-02-07T10:07:28.153Z,1.00
2019-02-07T10:10:21.589Z,1.10
2019-02-07T10:13:20.428Z,1.10
2019-02-07T10:16:19.844Z,1.00
2019-02-07T10:19:01.910Z,1.10
2019-02-07T10:21:47.296Z,1.40
2019-02-07T10:24:38.045Z,1.20
2019-02-07T10:27:23.004Z,1.50
2019-02-07T10:30:08.841Z,1.60
2019-02-07T10:32:54.504Z,1.70
2019-02-07T10:35:37.629Z,1.80
2019-02-07T10:38:29.191Z,1.70
2019-02-07T10:41:16.403Z,1.60
2019-02-07T10:44:18.641Z,1.60
2019-02-07T10:47:04.176Z,1.50
2019-02-07T10:49:42.319Z,1.30
2019-02-07T10:52:35.156Z,1.10
2019-02-07T10:55:30.067Z,1.00
2019-02-07T10:58:14.416Z,0.70
2019-02-07T11:01:04.942Z,0.80
2019-02-07T11:03:50.553Z,1.00
2019-02-07T11:06:30.240Z,1.20
2019-02-07T11:09:15.695Z,1.20
2019-02-07T11:12:04.584Z,1.30
2019-02-07T11:14:57.914Z,1.40
2019-02-07T11:17:50.989Z,1.30
2019-02-07T11:20:38.013Z,1.20
2019-02-07T11:23:17.315Z,1.10
2019-02-07T11:26:03.180Z,1.00
2019-02-07T11:28:53.184Z,0.60
2019-02-07T11:31:43.274Z,0.40
2019-02-07T11:34:33.067Z,0.30
2019-02-07T11:37:20.399Z,0.20
2019-02-07T11:40:06.273Z,0.20
2019-02-07T11:42:52.762Z,0.30
2019-02-07T11:45:39.728Z,0.20
2019-02-07T11:48:25.956Z,0.10
2019-02-07T11:51:06.036Z,0.20
2019-02-07T11:53:56.434Z,0.30
2019-02-07T11:56:48.662Z,0.20
2019-02-07T11:59:48.697Z,0.50
2019-02-07T12:02:50.679Z,0.50
2019-02-07T12:05:52.860Z,0.60
2019-02-07T12:08:58.145Z,0.60
2019-02-07T12:11:54.239Z,0.60
2019-02-07T12:14:35.755Z,0.60
2019-02-07T12:17:23.015Z,0.70
2019-02-07T12:20:15.861Z,0.80
2019-02-07T12:23:01.209Z,0.70
2019-02-07T12:25:55.424Z,0.60
2019-02-07T12:28:43.877Z,0.60
2019-02-07T12:31:29.670Z,0.60
2019-02-07T12:34:12.806Z,0.70
2019-02-07T12:36:50.242Z,0.60
2019-02-07T12:39:36.565Z,0.70
2019-02-07T12:42:16.537Z,0.80
2019-02-07T12:45:09.497Z,0.80
2019-02-07T12:47:46.245Z,1.00
2019-02-07T12:50:28.436Z,1.00
2019-02-07T12:53:33.669Z,0.60
2019-02-07T12:56:19.345Z,0.80
2019-02-07T12:59:18.627Z,0.80
2019-02-07T13:02:17.337Z,1.10
2019-02-07T13:05:04.464Z,1.10
2019-02-07T13:08:01.064Z,1.00
2019-02-07T13:10:49.124Z,0.90
2019-02-07T13:13:30.172Z,0.90
2019-02-07T13:16:26.360Z,1.00
2019-02-07T13:19:16.531Z,0.90
2019-02-07T13:22:18.731Z,0.90
2019-02-07T13:25:11.784Z,1.00
2019-02-07T13:27:49.255Z,1.40
2019-02-07T13:30:46.073Z,1.50
2019-02-07T13:33:42.469Z,1.50
2019-02-07T13:36:17.490Z,1.40
2019-02-07T13:39:04.471Z,1.40
2019-02-07T13:41:48.288Z,1.60
2019-02-07T13:44:33.976Z,1.80
2019-02-07T13:47:21.111Z,1.60
2019-02-07T13:50:06.829Z,1.60
2019-02-07T13:53:01.142Z,1.50
2019-02-07T13:55:50.942Z,1.40
2019-02-07T13:58:40.871Z,1.60
2019-02-07T14:01:27.972Z,1.50
2019-02-07T14:04:15.917Z,1.50
2019-02-07T14:07:03.234Z,1.50
2019-02-07T14:09:52.384Z,1.50
2019-02-07T14:12:43.071Z,1.60
2019-02-07T14:15:41.931Z,1.70
2019-02-07T14:18:27.804Z,1.80
2019-02-07T14:21:13.556Z,1.70
2019-02-07T14:24:07.142Z,1.80
2019-02-07T14:26:52.997Z,1.70
2019-02-07T14:29:40.848Z,1.80
2019-02-07T14:32:34.336Z,1.90
2019-02-07T14:35:34.855Z,2.00
2019-02-07T14:38:20.511Z,2.10
2019-02-07T14:41:10.832Z,2.00
2019-02-07T14:43:45.750Z,1.90
2019-02-07T14:46:48.105Z,1.80
2019-02-07T14:49:17.750Z,1.70
2019-02-07T14:51:46.242Z,1.70
2019-02-07T14:54:14.876Z,1.60
2019-02-07T14:56:42.641Z,1.70
2019-02-07T14:59:14.328Z,1.70
2019-02-07T15:01:42.302Z,1.90
2019-02-07T15:04:10.730Z,2.00
2019-02-07T15:06:40.410Z,2.00
2019-02-07T15:09:13.329Z,1.70
2019-02-07T15:11:41.285Z,1.60
2019-02-07T15:14:08.960Z,1.50
2019-02-07T15:16:36.669Z,1.40
2019-02-07T15:19:04.249Z,1.30
2019-02-07T15:21:31.873Z,1.70
2019-02-07T15:23:59.862Z,1.40
2019-02-07T15:26:27.842Z,1.40
2019-02-07T15:28:55.816Z,1.40
2019-02-07T15:31:23.631Z,1.40
2019-02-07T15:33:51.428Z,1.50
2019-02-07T15:36:19.255Z,1.70
2019-02-07T15:38:47.150Z,1.70
2019-02-07T15:41:14.965Z,1.50
2019-02-07T15:43:42.837Z,1.60
2019-02-07T15:46:12.281Z,1.60
2019-02-07T15:48:40.248Z,1.80
2019-02-07T15:51:09.211Z,1.60
2019-02-07T15:53:37.117Z,1.40
2019-02-07T15:56:04.996Z,1.50
2019-02-07T15:59:10.377Z,1.70
2019-02-07T16:02:03.627Z,1.80
2019-02-07T16:04:34.345Z,2.00
2019-02-07T16:07:02.162Z,1.90
2019-02-07T16:09:30.159Z,1.90
2019-02-07T16:11:58.824Z,1.80
2019-02-07T16:14:26.555Z,1.70
2019-02-07T16:16:54.158Z,1.60
2019-02-07T16:19:21.948Z,1.60
2019-02-07T16:21:49.835Z,1.60
2019-02-07T16:24:17.409Z,1.60
2019-02-07T16:26:45.295Z,1.60
2019-02-07T16:29:13.410Z,1.50
2019-02-07T16:31:41.400Z,1.50
2019-02-07T16:34:09.117Z,1.40
2019-02-07T16:36:37.030Z,1.30
2019-02-07T16:39:08.094Z,1.20
2019-02-07T16:41:37.649Z,1.20
2019-02-07T16:44:09.868Z,1.30
2019-02-07T16:46:37.512Z,1.50
2019-02-07T16:49:05.878Z,1.80
2019-02-07T16:51:36.168Z,1.90
2019-02-07T16:54:05.876Z,1.70
2019-02-07T16:56:33.627Z,1.70
2019-02-07T16:59:01.986Z,1.70
2019-02-07T17:01:32.876Z,1.50
2019-02-07T17:04:01.108Z,1.50
2019-02-07T17:06:33.813Z,1.70
2019-02-07T17:09:09.480Z,1.70
2019-02-07T17:11:37.540Z,1.70
2019-02-07T17:14:09.787Z,1.70
2019-02-07T17:16:40.346Z,1.70
2019-02-07T17:19:08.448Z,1.70
2019-02-07T17:21:36.474Z,1.50
2019-02-07T17:24:08.607Z,1.20
2019-02-07T17:26:39.777Z,1.20
2019-02-07T17:29:17.061Z,1.30
2019-02-07T17:31:46.900Z,1.30
2019-02-07T17:34:26.736Z,1.30
2019-02-07T17:36:54.588Z,1.40
2019-02-07T17:39:25.215Z,1.20
2019-02-07T17:41:55.666Z,1.10
2019-02-07T17:44:27.128Z,1.00
2019-02-07T17:46:58.599Z,1.00
2019-02-07T17:49:29.263Z,1.30
2019-02-07T17:52:10.831Z,1.40
2019-02-07T17:54:39.279Z,1.70
2019-02-07T17:57:10.650Z,1.90
2019-02-07T17:59:39.289Z,2.00
2019-02-07T18:02:09.442Z,2.10
2019-02-07T18:04:37.857Z,2.20
2019-02-07T18:07:06.570Z,2.30
2019-02-07T18:09:37.524Z,2.20
2019-02-07T18:12:12.076Z,2.20
2019-02-07T18:14:46.272Z,1.90
2019-02-07T18:17:20.280Z,1.60
2019-02-07T18:19:49.175Z,1.70
2019-02-07T18:22:20.871Z,1.70
2019-02-07T18:24:53.190Z,1.90
2019-02-07T18:27:25.081Z,2.00
2019-02-07T18:29:56.509Z,1.90
2019-02-07T18:32:28.734Z,2.10
2019-02-07T18:34:58.485Z,2.30
2019-02-07T18:37:27.463Z,2.30
2019-02-07T18:40:03.588Z,2.30
2019-02-07T18:43:10.138Z,2.40
2019-02-07T18:46:10.353Z,2.30
2019-02-07T18:49:26.062Z,2.40
2019-02-07T18:51:57.522Z,2.60
2019-02-07T18:54:29.568Z,2.50
2019-02-07T18:56:59.661Z,2.50
2019-02-07T18:59:27.766Z,2.40
2019-02-07T19:01:58.959Z,2.50
2019-02-07T19:04:30.516Z,2.50
2019-02-07T19:06:59.764Z,2.30
2019-02-07T19:09:33.060Z,2.30
2019-02-07T19:12:02.102Z,2.40
2019-02-07T19:14:36.609Z,2.40
2019-02-07T19:17:05.597Z,2.40
2019-02-07T19:19:38.193Z,2.40
2019-02-07T19:22:05.998Z,2.40
2019-02-07T19:24:41.172Z,2.30
2019-02-07T19:27:13.433Z,2.30
2019-02-07T19:29:43.243Z,2.30
2019-02-07T19:32:11.904Z,2.40
2019-02-07T19:34:41.736Z,2.40
2019-02-07T19:37:10.171Z,2.80
2019-02-07T19:39:37.928Z,2.90
2019-02-07T19:42:06.921Z,2.90
2019-02-07T19:44:34.912Z,3.00
2019-02-07T19:47:02.829Z,3.20
2019-02-07T19:49:34.227Z,3.30
2019-02-07T19:52:08.294Z,3.20
2019-02-07T19:54:35.610Z,3.10
2019-02-07T19:57:11.492Z,3.10
2019-02-07T19:59:40.923Z,3.10
2019-02-07T20:02:11.136Z,3.00
2019-02-07T20:04:42.441Z,3.00
2019-02-07T20:07:12.350Z,2.90
2019-02-07T20:09:41.155Z,3.00
2019-02-07T20:12:11.164Z,2.80
2019-02-07T20:14:43.858Z,2.80
2019-02-07T20:17:13.724Z,2.80
2019-02-07T20:20:01.586Z,2.80
2019-02-07T20:22:39.293Z,3.00
2019-02-07T20:25:23.772Z,3.00
2019-02-07T20:27:53.909Z,2.90
2019-02-07T20:30:32.444Z,2.90
2019-02-07T20:33:06.601Z,2.90
2019-02-07T20:35:35.709Z,2.90
2019-02-07T20:38:04.998Z,2.80
2019-02-07T20:40:36.718Z,2.70
2019-02-07T20:43:07.965Z,2.80
2019-02-07T20:45:41.040Z,3.00
2019-02-07T20:48:23.959Z,3.10
2019-02-07T20:50:57.733Z,3.00
2019-02-07T20:53:28.582Z,3.00
2019-02-07T20:56:00.949Z,3.10
2019-02-07T20:58:40.013Z,3.00
2019-02-07T21:01:26.952Z,3.00
2019-02-07T21:04:05.474Z,3.00
2019-02-07T21:06:51.033Z,3.10
2019-02-07T21:09:23.105Z,3.10
2019-02-07T21:12:00.969Z,3.00
2019-02-07T21:14:36.076Z,3.10
2019-02-07T21:17:11.993Z,3.20
2019-02-07T21:19:41.726Z,3.10
2019-02-07T21:22:15.093Z,3.20
2019-02-07T21:24:45.130Z,3.20
2019-02-07T21:27:24.657Z,3.20
2019-02-07T21:30:01.310Z,3.20
2019-02-07T21:32:34.720Z,3.40
2019-02-07T21:35:07.265Z,3.50
2019-02-07T21:37:42.978Z,3.60
2019-02-07T21:40:21.302Z,3.60
2019-02-07T21:42:51.646Z,3.40
2019-02-07T21:45:23.256Z,3.50
2019-02-07T21:48:07.160Z,3.60
2019-02-07T21:50:37.500Z,3.50
2019-02-07T21:53:09.110Z,3.60
2019-02-07T21:55:42.547Z,3.50
2019-02-07T21:58:12.147Z,3.70
2019-02-07T22:00:46.834Z,3.60
2019-02-07T22:03:19.490Z,3.50
2019-02-07T22:05:53.871Z,3.70
2019-02-07T22:08:29.668Z,3.70
2019-02-07T22:10:59.752Z,3.80
2019-02-07T22:13:34.031Z,3.80
2019-02-07T22:16:07.596Z,3.80
2019-02-07T22:18:40.522Z,3.90
2019-02-07T22:21:11.939Z,4.00
2019-02-07T22:23:49.545Z,3.90
2019-02-07T22:26:21.985Z,4.00
2019-02-07T22:28:50.092Z,3.80
2019-02-07T22:31:21.988Z,3.60
2019-02-07T22:33:52.488Z,3.60
2019-02-07T22:36:25.561Z,3.80
2019-02-07T22:38:56.624Z,3.90
2019-02-07T22:41:31.589Z,3.80
2019-02-07T22:44:09.970Z,3.80
2019-02-07T22:46:49.481Z,3.80
2019-02-07T22:49:24.296Z,3.80
2019-02-07T22:51:55.905Z,3.80
2019-02-07T22:54:28.533Z,3.80
2019-02-07T22:57:00.136Z,3.70
2019-02-07T22:59:31.856Z,3.80
2019-02-07T23:02:04.389Z,3.80
2019-02-07T23:04:37.665Z,3.80
2019-02-07T23:07:06.302Z,3.80
2019-02-07T23:09:34.270Z,3.90
2019-02-07T23:12:01.912Z,4.00
2019-02-07T23:14:30.130Z,4.00
2019-02-07T23:16:58.092Z,4.00
2019-02-07T23:19:26.143Z,3.80
2019-02-07T23:21:53.761Z,3.80
2019-02-07T23:24:21.076Z,3.70
2019-02-07T23:26:49.181Z,3.60
2019-02-07T23:29:16.783Z,3.60
2019-02-07T23:31:44.328Z,3.50
2019-02-07T23:34:11.759Z,3.50
2019-02-07T23:36:39.241Z,3.70
2019-02-07T23:39:08.635Z,3.60
2019-02-07T23:41:36.494Z,3.70
2019-02-07T23:44:05.354Z,3.70
2019-02-07T23:46:32.930Z,3.90
2019-02-07T23:49:00.244Z,3.90
2019-02-07T23:51:27.616Z,4.00
2019-02-07T23:53:55.173Z,4.10
2019-02-07T23:56:22.730Z,4.20
2019-02-07T23:58:50.388Z,4.20
